Pant, United Kingdom
Current Conditions -  °F | °C
As of 3:50 PM on Friday 24 Oct 2014 (Local Time) from EGOS Reporting Station
Drizzle Drizzle  
Wind Chill: 55°   Ceiling: 3200
Heat Index: 55°   Visibility: 6mi
Dew Point: 50°   Wind: 12mph
Humidity: 82%   Direction: 270°W
Pressure: 29.85"   Gusts: NA
Location:  52.78°N, 3.07°W
Report Text: EGOS 241450Z 27010KT 9999 -DZ FEW012 SCT018 BKN032 13/10 Q1011 WHT BECMG FEW018 BKN032 BLU
Loading
Personal Weather Stations






























Interactive Weather Map
Tropical Storm Tracking
New forecast layout! Learn more

10-Day Weather Forecast

Advertisements
Track Severe Weather on mobile